Pagina principale
METAR-TAF:

METAR-TAF

Aeroporti :

Piattaforma petrolifera

Goeree Le, Paesi Bassi

latitudine: 51-55-33N, longitudine: 3-40-12E, altezza: 19 m

Osservazione

Il bollettino è stato emesso 37 minuti fa, alle 08:55 UTC
Vento 13 kt da ovest/sud-ovest
Temperature 9°C
Umidità 66%
Pressione 1007 hPa
Visibilità 10 km o più

METAR: EHSC 110855Z AUTO 25013KT 9999 ///////// 09/03 Q1007 W09/H11

Ora: 10:32 (09:32 UTC)


TAF: mancante

Osservazioni e previsioni meteorologiche di più di 4000 aeroporti (messaggi METAR e TAF).

Le stazioni disponibili sono rappresentate dai dischi gialli e rossi sulla carta.

Puntare il mouse per vedere il nome della stazione.

Clicca sopra per visualizzare le osservazioni e previsioni meteorologiche.

Per cambiare la mappa : fare clic sui pulsanti verdi con una croce nera per ingrandire, il pulsante verde con un trattino per diminuire, o sulla freccia verde per le mappe adiacenti.


METAR-TAF: